Briefing drone pour Garchizy

Rechercher une autre localisation

Conditions de vol :


Nous sommes le : Samedi 23 octobre 2021
Il est 01:20 UTC (03:20 LT)

Lever de soleil : 05:51 UTC (07:51 LT)
Coucher de soleil : 17:12 UTC (19:12 LT)

Météo

L'essentiel des conditions de vol

VIGILANCE MÉTÉO FRANCE - Nièvre (58)
Pas de vigilances particulieres
CARTE TEMSI
CARTES DES FRONTS
METAR de LFQG
LFQG 221800Z AUTO 00000KT CAVOK 05/03 Q1026

Date d'émission: 22/10/2021
Heure d'émission: 18:00 UTC
Vent: Calme
Visibilité horizontale: > 10 km
Plafond : Plafond et visibilité OK (CAVOK)
Température: 5 °C
Point de rosée: 3 °C
Humidité: 87%
Pression (QNH): 1026 hPa
Prévision 24h pour Nevers (6 km)
Vent : 98° pour 1 KT (5 km/h)
Temperature Maxi: 5 °C
Temperature Min: 5 °C
Humidité : 84%
Condition : Partiellement nuageux



Warning: count(): Parameter must be an array or an object that implements Countable in /homepages/6/d509196549/htdocs/droneoxygene/briefing.php on line 743
WEBCAM POUR GARCHIZY

Réglementation

Voler en sécurité

CARTES AERONAUTIQUE 1/500.000
CARTES VAC (LFQG)
SUP AIP




Chargement des AIP...
NOTAM (GARCHIZY + Terrain à proximité / FIR )




Chargement des NOTAMS...
CONTACT PREFECTURE 58


Avertissement : Les données mises à disposition sont indicatives. Oxygène Drone ne pourra être tenu responsable de dégâts causés aux biens et aux personnes.